sensor_id;sensor_type;location;lat;lon;timestamp;P1;durP1;ratioP1;P2;durP2;ratioP2
69327;SDS011;56472;52.114;5.492;2023-04-06T00:00:54;18.55;;;11.45;;
69327;SDS011;56472;52.114;5.492;2023-04-06T00:03:21;16.92;;;11.65;;
69327;SDS011;56472;52.114;5.492;2023-04-06T00:05:48;20.70;;;11.93;;
69327;SDS011;56472;52.114;5.492;2023-04-06T00:08:15;22.33;;;11.75;;
69327;SDS011;56472;52.114;5.492;2023-04-06T00:10:42;17.00;;;11.35;;
69327;SDS011;56472;52.114;5.492;2023-04-06T00:13:09;19.35;;;11.30;;
69327;SDS011;56472;52.114;5.492;2023-04-06T00:15:36;15.30;;;10.75;;
69327;SDS011;56472;52.114;5.492;2023-04-06T00:18:03;18.50;;;11.80;;
69327;SDS011;56472;52.114;5.492;2023-04-06T00:20:30;23.50;;;12.35;;
69327;SDS011;56472;52.114;5.492;2023-04-06T00:22:57;14.82;;;10.90;;
69327;SDS011;56472;52.114;5.492;2023-04-06T00:25:24;19.15;;;10.38;;
69327;SDS011;56472;52.114;5.492;2023-04-06T00:27:51;20.75;;;10.77;;
69327;SDS011;56472;52.114;5.492;2023-04-06T00:30:18;17.73;;;10.80;;
69327;SDS011;56472;52.114;5.492;2023-04-06T00:32:45;24.13;;;11.00;;
69327;SDS011;56472;52.114;5.492;2023-04-06T00:35:12;15.73;;;10.45;;
69327;SDS011;56472;52.114;5.492;2023-04-06T00:37:39;22.70;;;9.98;;
69327;SDS011;56472;52.114;5.492;2023-04-06T00:40:06;20.00;;;11.30;;
69327;SDS011;56472;52.114;5.492;2023-04-06T00:42:34;19.85;;;9.93;;
69327;SDS011;56472;52.114;5.492;2023-04-06T00:45:01;20.48;;;10.82;;
69327;SDS011;56472;52.114;5.492;2023-04-06T00:47:29;17.88;;;11.45;;
69327;SDS011;56472;52.114;5.492;2023-04-06T00:49:56;16.55;;;10.70;;
69327;SDS011;56472;52.114;5.492;2023-04-06T00:52:23;20.13;;;11.00;;
69327;SDS011;56472;52.114;5.492;2023-04-06T00:54:51;17.63;;;10.50;;
69327;SDS011;56472;52.114;5.492;2023-04-06T00:57:19;17.98;;;10.85;;
69327;SDS011;56472;52.114;5.492;2023-04-06T00:59:52;20.90;;;10.77;;
69327;SDS011;56472;52.114;5.492;2023-04-06T01:02:20;20.42;;;10.57;;
69327;SDS011;56472;52.114;5.492;2023-04-06T01:04:49;17.50;;;11.15;;
69327;SDS011;56472;52.114;5.492;2023-04-06T01:07:36;15.88;;;11.27;;
69327;SDS011;56472;52.114;5.492;2023-04-06T01:10:24;14.27;;;10.35;;
69327;SDS011;56472;52.114;5.492;2023-04-06T01:13:00;15.35;;;10.50;;
69327;SDS011;56472;52.114;5.492;2023-04-06T01:15:42;17.98;;;11.48;;
69327;SDS011;56472;52.114;5.492;2023-04-06T01:18:13;14.18;;;10.35;;
69327;SDS011;56472;52.114;5.492;2023-04-06T01:20:47;18.25;;;10.50;;
69327;SDS011;56472;52.114;5.492;2023-04-06T01:23:15;16.08;;;10.63;;
69327;SDS011;56472;52.114;5.492;2023-04-06T01:25:45;14.25;;;9.80;;
69327;SDS011;56472;52.114;5.492;2023-04-06T01:28:12;14.68;;;10.30;;
69327;SDS011;56472;52.114;5.492;2023-04-06T01:30:54;17.85;;;10.68;;
69327;SDS011;56472;52.114;5.492;2023-04-06T01:33:43;14.95;;;9.95;;
69327;SDS011;56472;52.114;5.492;2023-04-06T01:36:15;17.50;;;10.35;;
69327;SDS011;56472;52.114;5.492;2023-04-06T01:38:43;14.65;;;10.25;;
69327;SDS011;56472;52.114;5.492;2023-04-06T01:41:12;16.65;;;10.25;;
69327;SDS011;56472;52.114;5.492;2023-04-06T01:43:51;13.68;;;9.77;;
69327;SDS011;56472;52.114;5.492;2023-04-06T01:46:24;24.48;;;10.18;;
69327;SDS011;56472;52.114;5.492;2023-04-06T01:48:51;16.40;;;10.25;;
69327;SDS011;56472;52.114;5.492;2023-04-06T01:51:33;14.75;;;10.27;;
69327;SDS011;56472;52.114;5.492;2023-04-06T01:54:03;15.55;;;10.57;;
69327;SDS011;56472;52.114;5.492;2023-04-06T01:56:53;19.67;;;10.73;;
69327;SDS011;56472;52.114;5.492;2023-04-06T01:59:30;14.65;;;10.13;;
69327;SDS011;56472;52.114;5.492;2023-04-06T02:02:00;23.40;;;10.60;;
69327;SDS011;56472;52.114;5.492;2023-04-06T02:04:28;18.02;;;10.70;;
69327;SDS011;56472;52.114;5.492;2023-04-06T02:07:05;19.38;;;11.38;;
69327;SDS011;56472;52.114;5.492;2023-04-06T02:09:32;17.98;;;11.02;;
69327;SDS011;56472;52.114;5.492;2023-04-06T02:11:59;17.27;;;10.80;;
69327;SDS011;56472;52.114;5.492;2023-04-06T02:14:29;17.20;;;11.32;;
69327;SDS011;56472;52.114;5.492;2023-04-06T02:16:59;15.93;;;10.35;;
69327;SDS011;56472;52.114;5.492;2023-04-06T02:19:26;15.77;;;11.05;;
69327;SDS011;56472;52.114;5.492;2023-04-06T02:21:53;20.65;;;11.18;;
69327;SDS011;56472;52.114;5.492;2023-04-06T02:24:19;16.60;;;10.50;;
69327;SDS011;56472;52.114;5.492;2023-04-06T02:26:46;18.42;;;10.65;;
69327;SDS011;56472;52.114;5.492;2023-04-06T02:29:13;16.52;;;9.60;;
69327;SDS011;56472;52.114;5.492;2023-04-06T02:31:40;14.68;;;9.93;;
69327;SDS011;56472;52.114;5.492;2023-04-06T02:34:08;28.77;;;10.45;;
69327;SDS011;56472;52.114;5.492;2023-04-06T02:36:41;13.52;;;9.52;;
69327;SDS011;56472;52.114;5.492;2023-04-06T02:39:08;18.13;;;10.13;;
69327;SDS011;56472;52.114;5.492;2023-04-06T02:41:35;14.43;;;10.20;;
69327;SDS011;56472;52.114;5.492;2023-04-06T02:44:03;18.88;;;10.30;;
69327;SDS011;56472;52.114;5.492;2023-04-06T02:46:37;16.65;;;10.50;;
69327;SDS011;56472;52.114;5.492;2023-04-06T02:49:04;14.30;;;8.95;;
69327;SDS011;56472;52.114;5.492;2023-04-06T02:51:33;15.77;;;9.93;;
69327;SDS011;56472;52.114;5.492;2023-04-06T02:54:23;17.70;;;10.18;;
69327;SDS011;56472;52.114;5.492;2023-04-06T02:56:50;17.33;;;9.63;;
69327;SDS011;56472;52.114;5.492;2023-04-06T02:59:18;15.60;;;10.63;;
69327;SDS011;56472;52.114;5.492;2023-04-06T03:01:56;17.63;;;9.88;;
69327;SDS011;56472;52.114;5.492;2023-04-06T03:04:22;15.98;;;10.82;;
69327;SDS011;56472;52.114;5.492;2023-04-06T03:06:53;18.90;;;10.23;;
69327;SDS011;56472;52.114;5.492;2023-04-06T03:09:31;20.23;;;10.05;;
69327;SDS011;56472;52.114;5.492;2023-04-06T03:11:58;18.60;;;9.52;;
69327;SDS011;56472;52.114;5.492;2023-04-06T03:14:27;17.33;;;10.15;;
69327;SDS011;56472;52.114;5.492;2023-04-06T03:16:55;21.33;;;10.60;;
69327;SDS011;56472;52.114;5.492;2023-04-06T03:19:23;17.15;;;10.10;;
69327;SDS011;56472;52.114;5.492;2023-04-06T03:21:51;13.65;;;9.82;;
69327;SDS011;56472;52.114;5.492;2023-04-06T03:24:20;18.42;;;10.63;;
69327;SDS011;56472;52.114;5.492;2023-04-06T03:26:46;17.83;;;10.48;;
69327;SDS011;56472;52.114;5.492;2023-04-06T03:29:13;14.90;;;9.70;;
69327;SDS011;56472;52.114;5.492;2023-04-06T03:31:41;16.38;;;10.07;;
69327;SDS011;56472;52.114;5.492;2023-04-06T03:34:30;16.52;;;10.25;;
69327;SDS011;56472;52.114;5.492;2023-04-06T03:36:57;16.58;;;10.25;;
69327;SDS011;56472;52.114;5.492;2023-04-06T03:39:38;11.82;;;9.80;;
69327;SDS011;56472;52.114;5.492;2023-04-06T03:42:06;15.15;;;9.90;;
69327;SDS011;56472;52.114;5.492;2023-04-06T03:44:35;18.75;;;10.00;;
69327;SDS011;56472;52.114;5.492;2023-04-06T03:47:03;15.70;;;10.10;;
69327;SDS011;56472;52.114;5.492;2023-04-06T03:49:30;16.17;;;10.20;;
69327;SDS011;56472;52.114;5.492;2023-04-06T03:51:58;18.05;;;10.50;;
69327;SDS011;56472;52.114;5.492;2023-04-06T03:54:24;17.10;;;10.80;;
69327;SDS011;56472;52.114;5.492;2023-04-06T03:56:51;15.90;;;9.90;;
69327;SDS011;56472;52.114;5.492;2023-04-06T03:59:18;20.30;;;10.43;;
69327;SDS011;56472;52.114;5.492;2023-04-06T04:01:45;14.05;;;9.70;;
69327;SDS011;56472;52.114;5.492;2023-04-06T04:04:12;19.10;;;10.77;;
69327;SDS011;56472;52.114;5.492;2023-04-06T04:06:39;18.58;;;10.07;;
69327;SDS011;56472;52.114;5.492;2023-04-06T04:09:07;14.77;;;10.25;;
69327;SDS011;56472;52.114;5.492;2023-04-06T04:11:34;22.38;;;10.38;;
69327;SDS011;56472;52.114;5.492;2023-04-06T04:14:01;14.27;;;10.55;;
69327;SDS011;56472;52.114;5.492;2023-04-06T04:16:28;16.95;;;10.75;;
69327;SDS011;56472;52.114;5.492;2023-04-06T04:18:55;15.27;;;11.00;;
69327;SDS011;56472;52.114;5.492;2023-04-06T04:21:24;20.55;;;11.05;;
69327;SDS011;56472;52.114;5.492;2023-04-06T04:23:52;21.52;;;10.57;;
69327;SDS011;56472;52.114;5.492;2023-04-06T04:26:19;23.80;;;11.15;;
69327;SDS011;56472;52.114;5.492;2023-04-06T04:28:46;17.25;;;11.38;;
69327;SDS011;56472;52.114;5.492;2023-04-06T04:31:13;21.10;;;11.07;;
69327;SDS011;56472;52.114;5.492;2023-04-06T04:33:40;20.17;;;12.63;;
69327;SDS011;56472;52.114;5.492;2023-04-06T04:36:12;15.88;;;11.40;;
69327;SDS011;56472;52.114;5.492;2023-04-06T04:38:42;25.10;;;11.38;;
69327;SDS011;56472;52.114;5.492;2023-04-06T04:41:09;18.25;;;11.13;;
69327;SDS011;56472;52.114;5.492;2023-04-06T04:43:39;17.35;;;11.45;;
69327;SDS011;56472;52.114;5.492;2023-04-06T04:46:06;19.05;;;11.07;;
69327;SDS011;56472;52.114;5.492;2023-04-06T04:48:39;18.30;;;11.88;;
69327;SDS011;56472;52.114;5.492;2023-04-06T04:51:06;16.60;;;11.63;;
69327;SDS011;56472;52.114;5.492;2023-04-06T04:53:52;18.70;;;11.95;;
69327;SDS011;56472;52.114;5.492;2023-04-06T04:56:23;22.67;;;11.45;;
69327;SDS011;56472;52.114;5.492;2023-04-06T04:58:56;19.50;;;12.00;;
69327;SDS011;56472;52.114;5.492;2023-04-06T05:01:24;27.40;;;12.07;;
69327;SDS011;56472;52.114;5.492;2023-04-06T05:03:51;29.55;;;11.98;;
69327;SDS011;56472;52.114;5.492;2023-04-06T05:06:19;28.63;;;12.52;;
69327;SDS011;56472;52.114;5.492;2023-04-06T05:08:45;21.33;;;12.50;;
69327;SDS011;56472;52.114;5.492;2023-04-06T05:11:12;20.52;;;12.55;;
69327;SDS011;56472;52.114;5.492;2023-04-06T05:13:44;25.35;;;12.75;;
69327;SDS011;56472;52.114;5.492;2023-04-06T05:16:16;26.23;;;13.23;;
69327;SDS011;56472;52.114;5.492;2023-04-06T05:18:43;22.13;;;12.15;;
69327;SDS011;56472;52.114;5.492;2023-04-06T05:21:11;19.15;;;12.63;;
69327;SDS011;56472;52.114;5.492;2023-04-06T05:23:50;21.58;;;13.88;;
69327;SDS011;56472;52.114;5.492;2023-04-06T05:26:17;29.77;;;12.55;;
69327;SDS011;56472;52.114;5.492;2023-04-06T05:28:45;20.85;;;12.48;;
69327;SDS011;56472;52.114;5.492;2023-04-06T05:31:13;19.95;;;12.63;;
69327;SDS011;56472;52.114;5.492;2023-04-06T05:33:45;19.63;;;12.80;;
69327;SDS011;56472;52.114;5.492;2023-04-06T05:36:14;21.73;;;12.95;;
69327;SDS011;56472;52.114;5.492;2023-04-06T05:38:44;19.75;;;12.73;;
69327;SDS011;56472;52.114;5.492;2023-04-06T05:41:31;21.85;;;14.23;;
69327;SDS011;56472;52.114;5.492;2023-04-06T05:43:59;30.85;;;15.93;;
69327;SDS011;56472;52.114;5.492;2023-04-06T05:46:26;22.98;;;13.73;;
69327;SDS011;56472;52.114;5.492;2023-04-06T05:48:56;23.42;;;13.77;;
69327;SDS011;56472;52.114;5.492;2023-04-06T05:51:27;32.50;;;14.32;;
69327;SDS011;56472;52.114;5.492;2023-04-06T05:53:54;29.05;;;14.52;;
69327;SDS011;56472;52.114;5.492;2023-04-06T05:56:21;22.95;;;14.00;;
69327;SDS011;56472;52.114;5.492;2023-04-06T05:58:48;22.70;;;14.43;;
69327;SDS011;56472;52.114;5.492;2023-04-06T06:01:21;27.38;;;14.00;;
69327;SDS011;56472;52.114;5.492;2023-04-06T06:03:48;22.48;;;14.73;;
69327;SDS011;56472;52.114;5.492;2023-04-06T06:06:15;24.08;;;14.02;;
69327;SDS011;56472;52.114;5.492;2023-04-06T06:08:55;22.08;;;13.88;;
69327;SDS011;56472;52.114;5.492;2023-04-06T06:11:25;24.27;;;14.18;;
69327;SDS011;56472;52.114;5.492;2023-04-06T06:13:53;20.20;;;13.55;;
69327;SDS011;56472;52.114;5.492;2023-04-06T06:16:20;24.50;;;14.20;;
69327;SDS011;56472;52.114;5.492;2023-04-06T06:18:47;24.95;;;15.18;;
69327;SDS011;56472;52.114;5.492;2023-04-06T06:21:15;26.52;;;14.15;;
69327;SDS011;56472;52.114;5.492;2023-04-06T06:23:43;25.63;;;14.05;;
69327;SDS011;56472;52.114;5.492;2023-04-06T06:26:14;20.27;;;13.93;;
69327;SDS011;56472;52.114;5.492;2023-04-06T06:28:42;22.75;;;14.77;;
69327;SDS011;56472;52.114;5.492;2023-04-06T06:31:11;22.85;;;14.75;;
69327;SDS011;56472;52.114;5.492;2023-04-06T06:33:39;26.08;;;15.38;;
69327;SDS011;56472;52.114;5.492;2023-04-06T06:36:06;25.17;;;15.40;;
69327;SDS011;56472;52.114;5.492;2023-04-06T06:38:33;21.17;;;14.77;;
69327;SDS011;56472;52.114;5.492;2023-04-06T06:41:00;33.10;;;15.80;;
69327;SDS011;56472;52.114;5.492;2023-04-06T06:43:30;33.95;;;15.90;;
69327;SDS011;56472;52.114;5.492;2023-04-06T06:46:00;23.10;;;15.35;;
69327;SDS011;56472;52.114;5.492;2023-04-06T06:48:27;25.88;;;15.38;;
69327;SDS011;56472;52.114;5.492;2023-04-06T06:50:54;27.08;;;15.18;;
69327;SDS011;56472;52.114;5.492;2023-04-06T06:53:22;28.52;;;15.50;;
69327;SDS011;56472;52.114;5.492;2023-04-06T06:55:49;30.52;;;16.13;;
69327;SDS011;56472;52.114;5.492;2023-04-06T06:58:19;28.58;;;15.35;;
69327;SDS011;56472;52.114;5.492;2023-04-06T07:00:47;25.85;;;15.13;;
69327;SDS011;56472;52.114;5.492;2023-04-06T07:03:14;23.33;;;15.13;;
69327;SDS011;56472;52.114;5.492;2023-04-06T07:05:45;25.73;;;15.05;;
69327;SDS011;56472;52.114;5.492;2023-04-06T07:08:16;27.88;;;15.27;;
69327;SDS011;56472;52.114;5.492;2023-04-06T07:10:43;23.10;;;15.18;;
69327;SDS011;56472;52.114;5.492;2023-04-06T07:13:09;30.60;;;15.43;;
69327;SDS011;56472;52.114;5.492;2023-04-06T07:15:37;29.73;;;16.30;;
69327;SDS011;56472;52.114;5.492;2023-04-06T07:18:04;30.73;;;15.55;;
69327;SDS011;56472;52.114;5.492;2023-04-06T07:20:31;27.02;;;16.70;;
69327;SDS011;56472;52.114;5.492;2023-04-06T07:22:58;24.80;;;16.20;;
69327;SDS011;56472;52.114;5.492;2023-04-06T07:25:25;26.25;;;15.90;;
69327;SDS011;56472;52.114;5.492;2023-04-06T07:27:51;29.60;;;16.08;;
69327;SDS011;56472;52.114;5.492;2023-04-06T07:30:18;25.15;;;16.60;;
69327;SDS011;56472;52.114;5.492;2023-04-06T07:32:46;32.03;;;16.33;;
69327;SDS011;56472;52.114;5.492;2023-04-06T07:35:14;23.75;;;15.32;;
69327;SDS011;56472;52.114;5.492;2023-04-06T07:37:41;24.77;;;15.52;;
69327;SDS011;56472;52.114;5.492;2023-04-06T07:40:08;27.90;;;16.88;;
69327;SDS011;56472;52.114;5.492;2023-04-06T07:42:36;29.35;;;15.85;;
69327;SDS011;56472;52.114;5.492;2023-04-06T07:45:05;25.98;;;16.88;;
69327;SDS011;56472;52.114;5.492;2023-04-06T07:47:33;25.58;;;16.15;;
69327;SDS011;56472;52.114;5.492;2023-04-06T07:50:00;32.28;;;16.48;;
69327;SDS011;56472;52.114;5.492;2023-04-06T07:52:28;28.50;;;16.20;;
69327;SDS011;56472;52.114;5.492;2023-04-06T07:54:55;29.40;;;17.20;;
69327;SDS011;56472;52.114;5.492;2023-04-06T07:57:22;31.90;;;16.80;;
69327;SDS011;56472;52.114;5.492;2023-04-06T07:59:49;29.02;;;17.42;;
69327;SDS011;56472;52.114;5.492;2023-04-06T08:02:16;34.28;;;17.90;;
69327;SDS011;56472;52.114;5.492;2023-04-06T08:04:43;29.00;;;18.05;;
69327;SDS011;56472;52.114;5.492;2023-04-06T08:07:11;27.42;;;16.42;;
69327;SDS011;56472;52.114;5.492;2023-04-06T08:09:38;26.40;;;17.25;;
69327;SDS011;56472;52.114;5.492;2023-04-06T08:12:05;28.88;;;17.73;;
69327;SDS011;56472;52.114;5.492;2023-04-06T08:14:32;27.15;;;16.67;;
69327;SDS011;56472;52.114;5.492;2023-04-06T08:16:59;28.10;;;16.40;;
69327;SDS011;56472;52.114;5.492;2023-04-06T08:19:26;37.60;;;17.63;;
69327;SDS011;56472;52.114;5.492;2023-04-06T08:21:53;30.23;;;18.33;;
69327;SDS011;56472;52.114;5.492;2023-04-06T08:24:20;26.67;;;15.82;;
69327;SDS011;56472;52.114;5.492;2023-04-06T08:26:47;32.58;;;17.77;;
69327;SDS011;56472;52.114;5.492;2023-04-06T08:29:14;26.80;;;17.50;;
69327;SDS011;56472;52.114;5.492;2023-04-06T08:31:40;31.02;;;17.38;;
69327;SDS011;56472;52.114;5.492;2023-04-06T08:34:07;27.17;;;17.05;;
69327;SDS011;56472;52.114;5.492;2023-04-06T08:36:39;35.20;;;19.98;;
69327;SDS011;56472;52.114;5.492;2023-04-06T08:39:05;36.90;;;18.42;;
69327;SDS011;56472;52.114;5.492;2023-04-06T08:41:33;30.55;;;18.35;;
69327;SDS011;56472;52.114;5.492;2023-04-06T08:44:01;26.65;;;17.70;;
69327;SDS011;56472;52.114;5.492;2023-04-06T08:46:30;54.88;;;20.20;;
69327;SDS011;56472;52.114;5.492;2023-04-06T08:48:58;29.58;;;17.13;;
69327;SDS011;56472;52.114;5.492;2023-04-06T08:51:27;28.95;;;19.10;;
69327;SDS011;56472;52.114;5.492;2023-04-06T08:53:56;36.80;;;19.33;;
69327;SDS011;56472;52.114;5.492;2023-04-06T08:56:24;30.10;;;18.20;;
69327;SDS011;56472;52.114;5.492;2023-04-06T08:58:54;29.55;;;19.52;;
69327;SDS011;56472;52.114;5.492;2023-04-06T09:01:22;36.00;;;19.27;;
69327;SDS011;56472;52.114;5.492;2023-04-06T09:03:55;32.78;;;19.08;;
69327;SDS011;56472;52.114;5.492;2023-04-06T09:06:24;29.40;;;18.25;;
69327;SDS011;56472;52.114;5.492;2023-04-06T09:08:54;30.15;;;19.55;;
69327;SDS011;56472;52.114;5.492;2023-04-06T09:11:21;27.52;;;18.25;;
69327;SDS011;56472;52.114;5.492;2023-04-06T09:13:49;32.95;;;19.00;;
69327;SDS011;56472;52.114;5.492;2023-04-06T09:16:20;31.77;;;19.30;;
69327;SDS011;56472;52.114;5.492;2023-04-06T09:18:47;33.10;;;19.25;;
69327;SDS011;56472;52.114;5.492;2023-04-06T09:21:18;35.50;;;19.55;;
69327;SDS011;56472;52.114;5.492;2023-04-06T09:24:00;39.60;;;18.95;;
69327;SDS011;56472;52.114;5.492;2023-04-06T09:26:28;38.97;;;19.85;;
69327;SDS011;56472;52.114;5.492;2023-04-06T09:28:56;33.70;;;19.25;;
69327;SDS011;56472;52.114;5.492;2023-04-06T09:31:25;32.15;;;20.60;;
69327;SDS011;56472;52.114;5.492;2023-04-06T09:33:54;38.65;;;20.55;;
69327;SDS011;56472;52.114;5.492;2023-04-06T09:39:03;38.90;;;20.05;;
69327;SDS011;56472;52.114;5.492;2023-04-06T09:41:31;31.63;;;20.02;;
69327;SDS011;56472;52.114;5.492;2023-04-06T09:46:43;29.95;;;19.13;;
69327;SDS011;56472;52.114;5.492;2023-04-06T09:49:13;35.10;;;19.30;;
69327;SDS011;56472;52.114;5.492;2023-04-06T09:51:43;43.13;;;20.60;;
69327;SDS011;56472;52.114;5.492;2023-04-06T09:54:18;34.00;;;19.92;;
69327;SDS011;56472;52.114;5.492;2023-04-06T09:56:47;42.90;;;19.15;;
69327;SDS011;56472;52.114;5.492;2023-04-06T10:02:03;28.95;;;19.33;;
69327;SDS011;56472;52.114;5.492;2023-04-06T10:06:59;34.97;;;20.13;;
69327;SDS011;56472;52.114;5.492;2023-04-06T10:09:31;30.27;;;19.42;;
69327;SDS011;56472;52.114;5.492;2023-04-06T10:12:03;40.90;;;19.67;;
69327;SDS011;56472;52.114;5.492;2023-04-06T10:14:32;41.65;;;20.60;;
69327;SDS011;56472;52.114;5.492;2023-04-06T10:19:37;33.15;;;18.98;;
69327;SDS011;56472;52.114;5.492;2023-04-06T10:22:21;37.75;;;20.02;;
69327;SDS011;56472;52.114;5.492;2023-04-06T10:24:58;38.88;;;17.88;;
69327;SDS011;56472;52.114;5.492;2023-04-06T10:27:28;30.40;;;18.00;;
69327;SDS011;56472;52.114;5.492;2023-04-06T10:30:03;30.97;;;15.93;;
69327;SDS011;56472;52.114;5.492;2023-04-06T10:32:32;25.83;;;14.63;;
69327;SDS011;56472;52.114;5.492;2023-04-06T10:35:07;28.60;;;17.40;;
69327;SDS011;56472;52.114;5.492;2023-04-06T10:37:49;31.25;;;16.65;;
69327;SDS011;56472;52.114;5.492;2023-04-06T10:40:18;27.63;;;14.07;;
69327;SDS011;56472;52.114;5.492;2023-04-06T10:42:47;23.50;;;14.55;;
69327;SDS011;56472;52.114;5.492;2023-04-06T10:45:21;24.85;;;14.02;;
69327;SDS011;56472;52.114;5.492;2023-04-06T10:47:50;24.48;;;13.27;;
69327;SDS011;56472;52.114;5.492;2023-04-06T10:50:19;20.60;;;13.82;;
69327;SDS011;56472;52.114;5.492;2023-04-06T10:52:47;17.05;;;11.32;;
69327;SDS011;56472;52.114;5.492;2023-04-06T10:55:28;19.58;;;11.25;;
69327;SDS011;56472;52.114;5.492;2023-04-06T10:57:55;14.90;;;9.57;;
69327;SDS011;56472;52.114;5.492;2023-04-06T11:00:22;13.80;;;9.60;;
69327;SDS011;56472;52.114;5.492;2023-04-06T11:02:59;17.02;;;9.38;;
69327;SDS011;56472;52.114;5.492;2023-04-06T11:05:29;11.10;;;8.30;;
69327;SDS011;56472;52.114;5.492;2023-04-06T11:07:56;11.38;;;8.32;;
69327;SDS011;56472;52.114;5.492;2023-04-06T11:10:23;11.25;;;8.45;;
69327;SDS011;56472;52.114;5.492;2023-04-06T11:12:54;9.43;;;7.70;;
69327;SDS011;56472;52.114;5.492;2023-04-06T11:15:21;13.60;;;7.23;;
69327;SDS011;56472;52.114;5.492;2023-04-06T11:17:48;9.77;;;6.65;;
69327;SDS011;56472;52.114;5.492;2023-04-06T11:20:16;12.18;;;8.40;;
69327;SDS011;56472;52.114;5.492;2023-04-06T11:22:48;10.38;;;7.47;;
69327;SDS011;56472;52.114;5.492;2023-04-06T11:25:16;12.40;;;8.13;;
69327;SDS011;56472;52.114;5.492;2023-04-06T11:27:44;14.18;;;7.20;;
69327;SDS011;56472;52.114;5.492;2023-04-06T11:30:13;12.05;;;7.43;;
69327;SDS011;56472;52.114;5.492;2023-04-06T11:32:42;9.75;;;7.07;;
69327;SDS011;56472;52.114;5.492;2023-04-06T11:35:11;11.27;;;6.97;;
69327;SDS011;56472;52.114;5.492;2023-04-06T11:37:48;10.50;;;7.38;;
69327;SDS011;56472;52.114;5.492;2023-04-06T11:40:20;9.75;;;7.13;;
69327;SDS011;56472;52.114;5.492;2023-04-06T11:42:55;11.20;;;6.82;;
69327;SDS011;56472;52.114;5.492;2023-04-06T11:45:22;8.45;;;6.70;;
69327;SDS011;56472;52.114;5.492;2023-04-06T11:47:56;13.13;;;6.75;;
69327;SDS011;56472;52.114;5.492;2023-04-06T11:50:31;13.23;;;7.50;;
69327;SDS011;56472;52.114;5.492;2023-04-06T11:53:01;9.07;;;7.32;;
69327;SDS011;56472;52.114;5.492;2023-04-06T11:55:29;10.73;;;7.50;;
69327;SDS011;56472;52.114;5.492;2023-04-06T11:58:02;8.93;;;6.88;;
69327;SDS011;56472;52.114;5.492;2023-04-06T12:00:29;10.68;;;7.30;;
69327;SDS011;56472;52.114;5.492;2023-04-06T12:03:00;9.32;;;7.00;;
69327;SDS011;56472;52.114;5.492;2023-04-06T12:05:27;11.95;;;7.55;;
69327;SDS011;56472;52.114;5.492;2023-04-06T12:07:54;12.15;;;7.05;;
69327;SDS011;56472;52.114;5.492;2023-04-06T12:10:24;12.25;;;7.07;;
69327;SDS011;56472;52.114;5.492;2023-04-06T12:12:51;8.95;;;6.53;;
69327;SDS011;56472;52.114;5.492;2023-04-06T12:15:18;10.68;;;7.15;;
69327;SDS011;56472;52.114;5.492;2023-04-06T12:17:44;12.65;;;8.07;;
69327;SDS011;56472;52.114;5.492;2023-04-06T12:20:11;9.90;;;6.95;;
69327;SDS011;56472;52.114;5.492;2023-04-06T12:22:52;9.32;;;7.47;;
69327;SDS011;56472;52.114;5.492;2023-04-06T12:25:19;12.13;;;7.78;;
69327;SDS011;56472;52.114;5.492;2023-04-06T12:27:46;14.32;;;7.22;;
69327;SDS011;56472;52.114;5.492;2023-04-06T12:30:13;9.82;;;7.18;;
69327;SDS011;56472;52.114;5.492;2023-04-06T12:32:41;9.57;;;6.90;;
69327;SDS011;56472;52.114;5.492;2023-04-06T12:35:08;10.57;;;7.35;;
69327;SDS011;56472;52.114;5.492;2023-04-06T12:37:35;10.90;;;7.70;;
69327;SDS011;56472;52.114;5.492;2023-04-06T12:40:03;12.10;;;8.18;;
69327;SDS011;56472;52.114;5.492;2023-04-06T12:42:30;10.57;;;7.72;;
69327;SDS011;56472;52.114;5.492;2023-04-06T12:44:57;8.60;;;7.30;;
69327;SDS011;56472;52.114;5.492;2023-04-06T12:47:25;10.13;;;8.07;;
69327;SDS011;56472;52.114;5.492;2023-04-06T12:49:53;11.75;;;7.75;;
69327;SDS011;56472;52.114;5.492;2023-04-06T12:52:21;11.13;;;7.47;;
69327;SDS011;56472;52.114;5.492;2023-04-06T12:54:48;14.48;;;8.52;;
69327;SDS011;56472;52.114;5.492;2023-04-06T12:57:16;10.05;;;7.53;;
69327;SDS011;56472;52.114;5.492;2023-04-06T12:59:43;10.68;;;7.43;;
69327;SDS011;56472;52.114;5.492;2023-04-06T13:02:11;10.23;;;7.90;;
69327;SDS011;56472;52.114;5.492;2023-04-06T13:04:38;9.82;;;7.95;;
69327;SDS011;56472;52.114;5.492;2023-04-06T13:07:05;11.85;;;8.35;;
69327;SDS011;56472;52.114;5.492;2023-04-06T13:09:32;16.17;;;8.68;;
69327;SDS011;56472;52.114;5.492;2023-04-06T13:11:59;13.50;;;8.48;;
69327;SDS011;56472;52.114;5.492;2023-04-06T13:14:27;11.55;;;8.10;;
69327;SDS011;56472;52.114;5.492;2023-04-06T13:16:54;16.67;;;8.60;;
69327;SDS011;56472;52.114;5.492;2023-04-06T13:19:21;10.27;;;8.27;;
69327;SDS011;56472;52.114;5.492;2023-04-06T13:21:48;13.35;;;9.07;;
69327;SDS011;56472;52.114;5.492;2023-04-06T13:24:15;11.88;;;8.32;;
69327;SDS011;56472;52.114;5.492;2023-04-06T13:26:43;16.42;;;8.75;;
69327;SDS011;56472;52.114;5.492;2023-04-06T13:29:10;13.38;;;8.68;;
69327;SDS011;56472;52.114;5.492;2023-04-06T13:31:37;13.35;;;9.25;;
69327;SDS011;56472;52.114;5.492;2023-04-06T13:34:05;13.10;;;8.88;;
69327;SDS011;56472;52.114;5.492;2023-04-06T13:36:32;11.60;;;8.52;;
69327;SDS011;56472;52.114;5.492;2023-04-06T13:38:59;11.65;;;9.10;;
69327;SDS011;56472;52.114;5.492;2023-04-06T13:41:26;11.70;;;8.98;;
69327;SDS011;56472;52.114;5.492;2023-04-06T13:43:53;14.60;;;8.75;;
69327;SDS011;56472;52.114;5.492;2023-04-06T13:46:20;11.52;;;8.30;;
69327;SDS011;56472;52.114;5.492;2023-04-06T13:48:47;14.45;;;9.15;;
69327;SDS011;56472;52.114;5.492;2023-04-06T13:51:14;12.80;;;9.20;;
69327;SDS011;56472;52.114;5.492;2023-04-06T13:53:41;13.38;;;9.05;;
69327;SDS011;56472;52.114;5.492;2023-04-06T13:56:08;16.55;;;10.90;;
69327;SDS011;56472;52.114;5.492;2023-04-06T13:58:35;14.65;;;9.70;;
69327;SDS011;56472;52.114;5.492;2023-04-06T14:01:03;14.48;;;9.43;;
69327;SDS011;56472;52.114;5.492;2023-04-06T14:03:31;16.75;;;8.65;;
69327;SDS011;56472;52.114;5.492;2023-04-06T14:05:58;13.07;;;9.10;;
69327;SDS011;56472;52.114;5.492;2023-04-06T14:08:40;15.00;;;9.07;;
69327;SDS011;56472;52.114;5.492;2023-04-06T14:11:11;12.68;;;9.00;;
69327;SDS011;56472;52.114;5.492;2023-04-06T14:13:39;12.65;;;9.73;;
69327;SDS011;56472;52.114;5.492;2023-04-06T14:16:06;16.10;;;10.13;;
69327;SDS011;56472;52.114;5.492;2023-04-06T14:18:33;12.95;;;9.02;;
69327;SDS011;56472;52.114;5.492;2023-04-06T14:21:00;15.77;;;10.35;;
69327;SDS011;56472;52.114;5.492;2023-04-06T14:23:27;14.07;;;9.30;;
69327;SDS011;56472;52.114;5.492;2023-04-06T14:26:01;14.77;;;9.98;;
69327;SDS011;56472;52.114;5.492;2023-04-06T14:28:32;12.40;;;9.80;;
69327;SDS011;56472;52.114;5.492;2023-04-06T14:31:00;13.23;;;9.55;;
69327;SDS011;56472;52.114;5.492;2023-04-06T14:33:29;14.88;;;10.10;;
69327;SDS011;56472;52.114;5.492;2023-04-06T14:35:56;14.65;;;9.93;;
69327;SDS011;56472;52.114;5.492;2023-04-06T14:38:23;18.85;;;10.07;;
69327;SDS011;56472;52.114;5.492;2023-04-06T14:40:50;15.50;;;10.93;;
69327;SDS011;56472;52.114;5.492;2023-04-06T14:43:17;15.85;;;10.80;;
69327;SDS011;56472;52.114;5.492;2023-04-06T14:45:44;14.23;;;9.75;;
69327;SDS011;56472;52.114;5.492;2023-04-06T14:48:11;17.65;;;10.45;;
69327;SDS011;56472;52.114;5.492;2023-04-06T14:50:38;18.13;;;10.02;;